Time;durP1;ratioP1;P1;durP2;ratioP2;P2;SDS_P1;SDS_P2;PMS_P1;PMS_P2;Temp;Humidity;BMP_temperature;BMP_pressure;BME280_temperature;BME280_humidity;BME280_pressure;Samples;Min_cycle;Max_cycle;Signal;HPM_P1;HPM_P2
2023/01/09 00:07:58;;;;;;;1.27;0.90;;;;;;;16.22;62.90;98913.94;20374086;29;20055;-88
2023/01/09 00:18:00;;;;;;;0.93;0.50;;;;;;;16.15;63.07;98902.22;20397464;29;20048;-88
2023/01/09 00:28:02;;;;;;;1.42;0.80;;;;;;;16.08;63.15;98901.22;20359673;29;20458;-89
2023/01/09 00:38:03;;;;;;;1.13;0.65;;;;;;;16.21;63.23;98933.75;20357449;29;20078;-89
2023/01/09 00:48:23;;;;;;;1.23;0.60;;;;;;;16.22;63.51;98964.09;20394119;29;20532;-87
2023/01/09 00:58:25;;;;;;;0.98;0.50;;;;;;;15.99;63.41;98921.91;20355172;29;20063;-88
2023/01/09 01:08:26;;;;;;;2.63;0.85;;;;;;;16.16;63.51;98928.06;20379146;29;20055;-88
2023/01/09 01:18:28;;;;;;;0.68;0.50;;;;;;;16.22;63.34;98956.06;20373992;29;20055;-87
2023/01/09 01:28:29;;;;;;;0.95;0.55;;;;;;;16.23;63.09;98947.00;20382339;29;20059;-88
2023/01/09 01:38:32;;;;;;;1.10;0.40;;;;;;;16.22;63.34;98948.00;20372653;29;20596;-88
2023/01/09 01:48:33;;;;;;;1.15;0.70;;;;;;;16.21;63.30;98938.28;20384641;29;20044;-88
2023/01/09 01:58:43;;;;;;;0.80;0.40;;;;;;;16.21;63.36;98954.38;20370220;29;20055;-88
2023/01/09 02:08:45;;;;;;;1.58;0.50;;;;;;;15.78;63.08;98919.75;20376530;29;20052;-88
2023/01/09 02:18:52;;;;;;;0.70;0.30;;;;;;;16.21;63.24;98965.13;20381131;29;20135;-88
2023/01/09 02:29:13;;;;;;;0.57;0.50;;;;;;;16.20;63.18;98982.25;20362380;29;20387;-88
2023/01/09 02:39:26;;;;;;;1.27;0.57;;;;;;;15.84;63.34;98919.06;20383043;29;20536;-88
2023/01/09 02:49:28;;;;;;;0.98;0.52;;;;;;;16.20;63.12;98979.56;20382840;29;20083;-88
2023/01/09 02:59:39;;;;;;;0.88;0.52;;;;;;;16.20;63.05;98975.03;20397994;29;20584;-88
2023/01/09 03:09:42;;;;;;;0.40;0.35;;;;;;;15.96;63.13;98943.72;20377610;29;20138;-88
2023/01/09 03:19:46;;;;;;;;;;;;;;;16.20;62.86;98988.47;20394295;29;20048;-88
2023/01/09 03:29:48;;;;;;;1.17;0.52;;;;;;;16.05;62.98;98977.59;20375377;29;20389;-88
2023/01/09 03:39:49;;;;;;;0.82;0.40;;;;;;;16.18;62.76;99001.22;20389649;29;20103;-88
2023/01/09 03:49:51;;;;;;;1.00;0.40;;;;;;;16.17;62.70;99002.22;20354695;29;20572;-88
2023/01/09 03:59:52;;;;;;;1.05;0.60;;;;;;;16.18;62.40;99013.78;20362078;29;20052;-88
2023/01/09 04:09:54;;;;;;;0.98;0.50;;;;;;;16.17;62.34;99010.28;20377239;29;20581;-88
2023/01/09 04:19:55;;;;;;;0.77;0.40;;;;;;;16.02;62.27;98999.41;20390715;29;20051;-88
2023/01/09 04:29:57;;;;;;;0.90;0.60;;;;;;;16.16;62.04;99019.34;20378224;29;20450;-88
2023/01/09 04:39:58;;;;;;;0.90;0.40;;;;;;;16.17;62.07;99017.47;20388942;29;20060;-85
2023/01/09 04:50:00;;;;;;;0.63;0.50;;;;;;;16.06;62.04;99013.31;20385757;29;20063;-88
2023/01/09 05:00:03;;;;;;;1.38;0.60;;;;;;;16.16;61.92;99029.22;20368895;29;20474;-87
2023/01/09 05:10:06;;;;;;;1.50;0.70;;;;;;;15.58;61.62;98940.75;20389760;29;20568;-88
2023/01/09 05:20:08;;;;;;;1.80;0.90;;;;;;;16.15;61.83;99052.56;20354688;29;20059;-87
2023/01/09 05:30:10;;;;;;;0.90;0.80;;;;;;;15.93;61.70;99029.94;20386799;29;20102;-88
2023/01/09 05:40:14;;;;;;;0.90;0.67;;;;;;;16.14;61.80;99074.22;20372442;28;20409;-88
2023/01/09 05:50:15;;;;;;;1.50;0.80;;;;;;;16.14;61.71;99076.88;20359135;29;20071;-88
2023/01/09 06:00:17;;;;;;;0.80;0.75;;;;;;;15.92;61.84;99049.75;20429958;28;20042;-88
2023/01/09 06:10:19;;;;;;;1.13;0.60;;;;;;;16.16;62.85;99099.88;20346343;29;20055;-90
2023/01/09 06:20:20;;;;;;;1.13;0.70;;;;;;;16.26;64.44;99098.88;20333570;29;20044;-88
2023/01/09 06:30:23;;;;;;;5.32;0.82;;;;;;;16.35;65.99;99144.34;21289126;23;20058;-96
2023/01/09 06:40:25;;;;;;;1.17;0.70;;;;;;;12.84;65.98;98572.72;21786438;23;20040;-96
2023/01/09 07:00:58;;;;;;;1.02;0.60;;;;;;;16.51;65.28;99110.41;20459973;23;20127;-90
2023/01/09 07:10:59;;;;;;;1.10;0.45;;;;;;;16.54;65.62;99123.50;20223060;29;20055;-87
2023/01/09 07:21:01;;;;;;;1.90;0.70;;;;;;;16.37;65.96;99107.41;20167015;29;20068;-89
2023/01/09 07:31:03;;;;;;;1.65;0.80;;;;;;;16.55;66.02;99121.63;20195470;29;20507;-91
2023/01/09 07:41:05;;;;;;;0.73;0.50;;;;;;;16.42;66.15;99090.78;20185559;29;20048;-91
2023/01/09 07:51:06;;;;;;;1.50;0.70;;;;;;;16.56;65.91;99118.78;20213494;29;20189;-90
2023/01/09 08:01:08;;;;;;;1.25;0.70;;;;;;;16.57;65.81;99131.22;20224166;29;20064;-91
2023/01/09 08:11:09;;;;;;;1.75;0.90;;;;;;;16.65;65.86;99147.31;20207443;29;20048;-89
2023/01/09 08:21:12;;;;;;;2.75;1.23;;;;;;;16.74;68.30;99136.53;20197898;29;20591;-94
2023/01/09 08:31:14;;;;;;;4.82;1.10;;;;;;;16.85;72.13;99141.56;20189658;29;20068;-93
2023/01/09 08:51:36;;;;;;;4.82;1.15;;;;;;;17.01;74.25;99134.47;20249967;29;20029;-95
2023/01/09 09:01:37;;;;;;;4.68;0.93;;;;;;;16.82;72.42;99140.06;20268559;29;20140;-96
2023/01/09 09:11:39;;;;;;;2.50;1.10;;;;;;;16.79;71.64;99144.91;20218821;29;20051;-95
2023/01/09 09:21:40;;;;;;;2.55;1.20;;;;;;;16.72;71.20;99152.00;20231353;29;20100;-95
2023/01/09 09:31:42;;;;;;;2.63;0.90;;;;;;;16.62;70.56;99158.41;20204160;29;20048;-95
2023/01/09 09:52:18;;;;;;;2.20;1.08;;;;;;;16.63;74.90;99164.63;20216763;29;20060;-91
2023/01/09 10:02:44;;;;;;;2.65;0.70;;;;;;;16.66;75.17;99169.66;20206284;29;20131;-93
2023/01/09 10:12:53;;;;;;;1.80;0.77;;;;;;;16.45;71.74;99125.34;20186958;29;20101;-90
2023/01/09 10:23:19;;;;;;;1.48;1.00;;;;;;;16.84;70.59;99182.91;20187253;29;20499;-94
2023/01/09 10:33:21;;;;;;;3.20;0.90;;;;;;;16.92;69.48;99190.94;20197657;29;20059;-92
2023/01/09 10:43:33;;;;;;;2.45;0.65;;;;;;;16.96;68.43;99186.03;20210096;29;21682;-90
2023/01/09 10:53:38;;;;;;;1.67;0.60;;;;;;;17.01;67.65;99201.69;20173663;29;20139;-95
2023/01/09 11:03:40;;;;;;;0.53;0.40;;;;;;;16.99;67.55;99187.59;20179743;29;20119;-89
2023/01/09 11:14:04;;;;;;;1.80;0.70;;;;;;;16.74;67.60;99153.50;20185130;29;20052;-91
2023/01/09 11:24:18;;;;;;;1.58;0.57;;;;;;;16.96;67.86;99203.00;20239005;29;20052;-91
2023/01/09 11:34:22;;;;;;;3.38;0.63;;;;;;;16.80;68.15;99195.00;20246168;29;20075;-91
2023/01/09 11:44:24;;;;;;;1.65;0.60;;;;;;;16.70;68.31;99200.53;20229468;29;20092;-91
2023/01/09 11:54:30;;;;;;;1.70;0.77;;;;;;;16.76;68.40;99236.63;20243809;29;20503;-91
2023/01/09 12:04:34;;;;;;;1.20;0.50;;;;;;;16.56;68.51;99217.34;20211483;29;20052;-90
2023/01/09 12:14:47;;;;;;;1.25;0.80;;;;;;;16.78;68.63;99266.84;20243005;29;20056;-91
2023/01/09 12:25:08;;;;;;;0.52;0.40;;;;;;;16.76;68.69;99268.88;20226043;29;20570;-91
2023/01/09 12:35:21;;;;;;;0.85;0.47;;;;;;;16.76;68.84;99301.13;20242098;29;20108;-91
2023/01/09 12:45:25;;;;;;;0.90;0.50;;;;;;;16.75;68.87;99312.88;20241390;29;20051;-90
2023/01/09 12:55:32;;;;;;;0.65;0.50;;;;;;;16.74;68.82;99316.59;20240858;29;20458;-91
2023/01/09 13:05:42;;;;;;;1.05;0.50;;;;;;;16.57;68.80;99307.66;20207312;29;20128;-91
2023/01/09 13:15:47;;;;;;;1.02;0.50;;;;;;;16.73;68.69;99344.47;20222004;29;20558;-91
2023/01/09 13:25:51;;;;;;;1.85;0.65;;;;;;;16.68;68.81;99351.19;20222364;29;20076;-91
2023/01/09 13:35:56;;;;;;;1.10;0.57;;;;;;;16.73;68.59;99377.56;20220690;29;20076;-90
2023/01/09 13:45:57;;;;;;;1.40;0.50;;;;;;;16.73;68.75;99392.81;20220079;29;20068;-90
2023/01/09 13:56:02;;;;;;;0.90;0.50;;;;;;;16.72;68.78;99409.97;20219462;29;20534;-91
2023/01/09 14:06:11;;;;;;;0.60;0.40;;;;;;;16.73;68.76;99430.44;20236546;29;20143;-91
2023/01/09 14:16:19;;;;;;;1.42;0.73;;;;;;;16.71;68.65;99462.03;20178840;29;20533;-90
2023/01/09 14:26:44;;;;;;;1.13;0.60;;;;;;;16.60;68.18;99453.25;20210165;29;20053;-91
2023/01/09 14:36:45;;;;;;;2.58;0.88;;;;;;;16.56;67.71;99476.09;20190829;29;20052;-95
2023/01/09 14:46:48;;;;;;;3.15;0.98;;;;;;;16.82;67.32;99531.63;20190671;29;20054;-90
2023/01/09 14:56:50;;;;;;;1.70;0.70;;;;;;;16.86;67.18;99548.25;20218083;29;20054;-92
2023/01/09 15:06:51;;;;;;;1.85;0.75;;;;;;;16.83;67.19;99579.00;20195775;29;20531;-94
2023/01/09 15:16:53;;;;;;;3.30;0.80;;;;;;;16.75;66.98;99581.63;20213853;29;20518;-94
2023/01/09 15:27:00;;;;;;;1.38;0.85;;;;;;;16.30;67.24;99528.00;20213461;29;20052;-91
2023/01/09 15:37:02;;;;;;;1.65;0.77;;;;;;;16.63;66.74;99598.03;20247183;29;20064;-88
2023/01/09 15:47:06;;;;;;;1.50;0.60;;;;;;;16.79;66.53;99653.72;20225076;29;20461;-91
2023/01/09 15:57:20;;;;;;;3.03;1.10;;;;;;;16.72;66.03;99667.94;20223483;29;20079;-86
2023/01/09 16:07:21;;;;;;;2.90;0.75;;;;;;;16.67;66.02;99706.88;20211032;29;20112;-88
2023/01/09 16:17:25;;;;;;;1.42;0.70;;;;;;;16.65;65.90;99722.31;20169642;29;20044;-88
2023/01/09 16:27:33;;;;;;;1.48;0.80;;;;;;;16.59;65.88;99738.25;20206566;29;20067;-87
2023/01/09 16:37:36;;;;;;;2.78;0.80;;;;;;;16.58;65.90;99758.88;20187957;29;20415;-86
2023/01/09 16:47:37;;;;;;;2.65;0.65;;;;;;;16.56;65.93;99776.16;20194499;29;20056;-86
2023/01/09 16:57:41;;;;;;;3.03;0.98;;;;;;;16.55;66.06;99795.97;20177392;29;20064;-91
2023/01/09 17:07:43;;;;;;;4.22;1.20;;;;;;;16.53;66.17;99812.25;20210371;29;20048;-88
2023/01/09 17:17:44;;;;;;;3.10;0.95;;;;;;;16.46;65.98;99829.97;20193532;29;20045;-89
2023/01/09 17:38:11;;;;;;;1.90;0.80;;;;;;;16.49;65.58;99861.91;20191480;29;20048;-88
2023/01/09 17:48:15;;;;;;;3.28;1.05;;;;;;;16.38;65.47;99873.72;20223907;29;20059;-89
2023/01/09 17:58:24;;;;;;;2.25;1.10;;;;;;;16.28;65.34;99883.69;20195484;29;20061;-89
2023/01/09 18:08:25;;;;;;;2.78;0.90;;;;;;;16.47;65.84;99929.22;20183521;29;20601;-93
2023/01/09 18:18:27;;;;;;;2.95;1.10;;;;;;;16.46;66.00;99935.59;20187869;29;20061;-94
2023/01/09 18:28:29;;;;;;;2.85;1.00;;;;;;;16.47;65.84;99966.81;20176216;29;20081;-89
2023/01/09 18:38:31;;;;;;;2.78;1.20;;;;;;;16.46;65.75;99985.81;20208812;29;20455;-89
2023/01/09 18:48:33;;;;;;;3.03;1.00;;;;;;;16.25;65.46;99970.75;20186749;29;20067;-90
2023/01/09 18:58:34;;;;;;;3.45;0.85;;;;;;;16.36;65.80;100002.81;20207961;29;20057;-95
2023/01/09 19:08:36;;;;;;;3.92;1.20;;;;;;;16.46;66.04;100039.53;20183541;29;20049;-92
2023/01/09 19:18:40;;;;;;;3.95;1.08;;;;;;;16.35;65.79;100049.47;20223773;29;20059;-91
2023/01/09 19:28:45;;;;;;;3.88;1.25;;;;;;;16.42;65.72;100076.56;20213352;29;20056;-90
2023/01/09 19:38:47;;;;;;;3.13;1.45;;;;;;;16.38;65.67;100072.50;20222255;29;20052;-92
2023/01/09 19:48:49;;;;;;;4.43;1.50;;;;;;;16.41;65.38;100092.88;20223100;29;20470;-91
2023/01/09 19:58:53;;;;;;;2.92;1.27;;;;;;;16.32;65.36;100094.56;20212773;29;20112;-92
2023/01/09 20:09:00;;;;;;;5.63;1.50;;;;;;;16.34;64.86;100135.56;20198285;29;20063;-91
2023/01/09 20:19:03;;;;;;;3.00;1.15;;;;;;;16.38;64.95;100162.00;20219425;29;20108;-90
2023/01/09 20:29:07;;;;;;;2.67;1.00;;;;;;;16.37;64.76;100181.81;20241538;29;20064;-92
2023/01/09 20:39:10;;;;;;;2.13;1.00;;;;;;;16.37;64.63;100202.44;20227547;29;20053;-91
2023/01/09 20:49:13;;;;;;;2.88;1.35;;;;;;;16.36;64.43;100219.53;20209762;29;20071;-91
2023/01/09 20:59:16;;;;;;;4.43;1.25;;;;;;;16.35;64.36;100237.50;20199585;29;20044;-92
2023/01/09 21:09:19;;;;;;;1.50;0.63;;;;;;;16.35;64.33;100247.38;20216884;29;20559;-91
2023/01/09 21:19:21;;;;;;;2.03;0.98;;;;;;;16.34;64.32;100284.13;20215152;29;20515;-91
2023/01/09 21:29:22;;;;;;;2.15;0.90;;;;;;;16.34;64.01;100294.03;20195576;29;20052;-91
2023/01/09 21:39:24;;;;;;;2.88;1.10;;;;;;;16.33;63.98;100306.63;20233293;29;20135;-90
2023/01/09 21:49:28;;;;;;;2.35;1.10;;;;;;;16.33;63.85;100333.47;20197846;29;20056;-91
2023/01/09 21:59:30;;;;;;;1.45;0.70;;;;;;;15.97;63.71;100297.41;20209455;29;20140;-91
2023/01/09 22:09:31;;;;;;;2.05;0.90;;;;;;;16.08;63.75;100345.59;20180216;29;20056;-90
2023/01/09 22:19:33;;;;;;;1.90;0.90;;;;;;;16.30;63.58;100392.84;20219635;29;20522;-91
2023/01/09 22:29:35;;;;;;;1.83;0.70;;;;;;;16.30;63.70;100421.56;20218793;29;20052;-91
2023/01/09 22:39:36;;;;;;;1.83;0.77;;;;;;;16.30;63.50;100417.03;20194317;29;20618;-91
2023/01/09 22:49:38;;;;;;;0.88;0.55;;;;;;;16.12;63.29;100405.25;20212293;29;20048;-91
2023/01/09 22:59:53;;;;;;;2.42;0.95;;;;;;;16.16;63.57;100433.53;20233629;29;20403;-91
2023/01/09 23:09:55;;;;;;;2.30;0.77;;;;;;;16.28;63.41;100467.34;20242163;29;20075;-92
2023/01/09 23:19:57;;;;;;;1.58;0.77;;;;;;;16.28;63.33;100494.22;20214076;29;20052;-91
2023/01/09 23:29:58;;;;;;;1.60;0.68;;;;;;;16.28;63.04;100517.56;20202466;29;20063;-90
2023/01/09 23:40:00;;;;;;;2.30;0.80;;;;;;;16.15;63.10;100509.72;20235367;29;20053;-91
2023/01/09 23:50:02;;;;;;;1.80;0.60;;;;;;;16.12;63.12;100515.38;20222298;29;20049;-91
